sensor_id;sensor_type;location;lat;lon;timestamp;pressure;altitude;pressure_sealevel;temperature
62611;BMP280;48683;48.084;17.272;2023-02-15T00:01:30;102134.75;;;1.25
62611;BMP280;48683;48.084;17.272;2023-02-15T00:03:55;102136.91;;;1.23
62611;BMP280;48683;48.084;17.272;2023-02-15T00:06:21;102134.22;;;1.28
62611;BMP280;48683;48.084;17.272;2023-02-15T00:08:46;102127.91;;;1.24
62611;BMP280;48683;48.084;17.272;2023-02-15T00:11:14;102133.00;;;1.15
62611;BMP280;48683;48.084;17.272;2023-02-15T00:13:40;102135.63;;;1.15
62611;BMP280;48683;48.084;17.272;2023-02-15T00:16:11;102130.66;;;1.09
62611;BMP280;48683;48.084;17.272;2023-02-15T00:18:37;102130.66;;;1.09
62611;BMP280;48683;48.084;17.272;2023-02-15T00:21:05;102134.38;;;1.08
62611;BMP280;48683;48.084;17.272;2023-02-15T00:23:31;102126.75;;;1.01
62611;BMP280;48683;48.084;17.272;2023-02-15T00:26:07;102138.09;;;1.02
62611;BMP280;48683;48.084;17.272;2023-02-15T00:28:33;102136.78;;;1.04
62611;BMP280;48683;48.084;17.272;2023-02-15T00:31:09;102131.25;;;1.01
62611;BMP280;48683;48.084;17.272;2023-02-15T00:33:35;102140.47;;;1.03
62611;BMP280;48683;48.084;17.272;2023-02-15T00:36:02;102137.56;;;1.05
62611;BMP280;48683;48.084;17.272;2023-02-15T00:38:28;102135.69;;;1.05
62611;BMP280;48683;48.084;17.272;2023-02-15T00:40:54;102120.13;;;0.99
62611;BMP280;48683;48.084;17.272;2023-02-15T00:43:20;102129.88;;;1.08
62611;BMP280;48683;48.084;17.272;2023-02-15T00:45:46;102121.94;;;1.03
62611;BMP280;48683;48.084;17.272;2023-02-15T00:48:11;102125.16;;;1.00
62611;BMP280;48683;48.084;17.272;2023-02-15T00:50:36;102118.00;;;1.01
62611;BMP280;48683;48.084;17.272;2023-02-15T00:53:02;102122.78;;;0.99
62611;BMP280;48683;48.084;17.272;2023-02-15T00:55:27;102112.75;;;0.95
62611;BMP280;48683;48.084;17.272;2023-02-15T00:57:53;102115.16;;;0.92
62611;BMP280;48683;48.084;17.272;2023-02-15T01:00:18;102120.41;;;0.97
62611;BMP280;48683;48.084;17.272;2023-02-15T01:02:43;102115.63;;;0.99
62611;BMP280;48683;48.084;17.272;2023-02-15T01:05:09;102110.66;;;0.92
62611;BMP280;48683;48.084;17.272;2023-02-15T01:07:34;102112.22;;;0.93
62611;BMP280;48683;48.084;17.272;2023-02-15T01:09:59;102107.56;;;0.75
62611;BMP280;48683;48.084;17.272;2023-02-15T01:12:25;102095.94;;;0.76
62611;BMP280;48683;48.084;17.272;2023-02-15T01:14:50;102101.47;;;0.80
62611;BMP280;48683;48.084;17.272;2023-02-15T01:17:15;102103.09;;;0.76
62611;BMP280;48683;48.084;17.272;2023-02-15T01:19:41;102097.78;;;0.76
62611;BMP280;48683;48.084;17.272;2023-02-15T01:22:06;102103.88;;;0.76
62611;BMP280;48683;48.084;17.272;2023-02-15T01:24:32;102099.13;;;0.73
62611;BMP280;48683;48.084;17.272;2023-02-15T01:26:57;102091.94;;;0.79
62611;BMP280;48683;48.084;17.272;2023-02-15T01:29:22;102098.81;;;0.85
62611;BMP280;48683;48.084;17.272;2023-02-15T01:31:48;102092.44;;;0.86
62611;BMP280;48683;48.084;17.272;2023-02-15T01:34:13;102099.00;;;0.93
62611;BMP280;48683;48.084;17.272;2023-02-15T01:36:38;102088.94;;;0.95
62611;BMP280;48683;48.084;17.272;2023-02-15T01:39:04;102088.72;;;0.92
62611;BMP280;48683;48.084;17.272;2023-02-15T01:41:29;102088.72;;;0.92
62611;BMP280;48683;48.084;17.272;2023-02-15T01:43:58;102087.13;;;0.91
62611;BMP280;48683;48.084;17.272;2023-02-15T01:46:45;102090.00;;;0.94
62611;BMP280;48683;48.084;17.272;2023-02-15T01:49:17;102079.50;;;0.84
62611;BMP280;48683;48.084;17.272;2023-02-15T01:51:46;102079.28;;;0.76
62611;BMP280;48683;48.084;17.272;2023-02-15T01:54:25;102074.34;;;0.59
62611;BMP280;48683;48.084;17.272;2023-02-15T01:56:54;102080.50;;;0.44
62611;BMP280;48683;48.084;17.272;2023-02-15T01:59:23;102076.56;;;0.37
62611;BMP280;48683;48.084;17.272;2023-02-15T02:01:51;102072.88;;;0.38
62611;BMP280;48683;48.084;17.272;2023-02-15T02:04:18;102072.13;;;0.27
62611;BMP280;48683;48.084;17.272;2023-02-15T02:06:47;102072.72;;;0.19
62611;BMP280;48683;48.084;17.272;2023-02-15T02:09:14;102068.22;;;0.15
62611;BMP280;48683;48.084;17.272;2023-02-15T02:11:40;102070.56;;;0.16
62611;BMP280;48683;48.084;17.272;2023-02-15T02:14:05;102065.03;;;0.23
62611;BMP280;48683;48.084;17.272;2023-02-15T02:16:42;102063.91;;;0.34
62611;BMP280;48683;48.084;17.272;2023-02-15T02:19:28;102058.41;;;0.25
62611;BMP280;48683;48.084;17.272;2023-02-15T02:22:12;102065.75;;;0.33
62611;BMP280;48683;48.084;17.272;2023-02-15T02:33:04;102057.50;;;0.45
62611;BMP280;48683;48.084;17.272;2023-02-15T02:35:57;102055.44;;;0.37
62611;BMP280;48683;48.084;17.272;2023-02-15T02:38:48;102052.00;;;0.31
62611;BMP280;48683;48.084;17.272;2023-02-15T02:41:27;102051.56;;;0.19
62611;BMP280;48683;48.084;17.272;2023-02-15T02:44:07;102054.47;;;0.18
62611;BMP280;48683;48.084;17.272;2023-02-15T02:46:43;102058.41;;;0.20
62611;BMP280;48683;48.084;17.272;2023-02-15T02:49:09;102043.69;;;0.04
62611;BMP280;48683;48.084;17.272;2023-02-15T02:51:34;102044.47;;;0.05
62611;BMP280;48683;48.084;17.272;2023-02-15T02:54:04;102038.69;;;-0.08
62611;BMP280;48683;48.084;17.272;2023-02-15T02:56:36;102050.06;;;-0.02
62611;BMP280;48683;48.084;17.272;2023-02-15T02:59:12;102043.22;;;-0.13
62611;BMP280;48683;48.084;17.272;2023-02-15T03:01:46;102038.22;;;-0.20
62611;BMP280;48683;48.084;17.272;2023-02-15T03:04:19;102044.78;;;-0.07
62611;BMP280;48683;48.084;17.272;2023-02-15T03:06:57;102050.84;;;-0.02
62611;BMP280;48683;48.084;17.272;2023-02-15T03:09:25;102054.53;;;0.08
62611;BMP280;48683;48.084;17.272;2023-02-15T03:12:00;102056.09;;;0.09
62611;BMP280;48683;48.084;17.272;2023-02-15T03:14:27;102054.75;;;0.11
62611;BMP280;48683;48.084;17.272;2023-02-15T03:16:54;102052.91;;;0.12
62611;BMP280;48683;48.084;17.272;2023-02-15T03:19:27;102054.47;;;0.18
62611;BMP280;48683;48.084;17.272;2023-02-15T03:21:59;102050.59;;;0.00
62611;BMP280;48683;48.084;17.272;2023-02-15T03:24:43;102044.78;;;-0.07
62611;BMP280;48683;48.084;17.272;2023-02-15T03:27:12;102053.00;;;-0.14
62611;BMP280;48683;48.084;17.272;2023-02-15T03:29:42;102032.41;;;-0.27
62611;BMP280;48683;48.084;17.272;2023-02-15T03:32:10;102040.88;;;-0.20
62611;BMP280;48683;48.084;17.272;2023-02-15T03:34:37;102040.34;;;-0.22
62611;BMP280;48683;48.084;17.272;2023-02-15T03:37:12;102044.28;;;-0.19
62611;BMP280;48683;48.084;17.272;2023-02-15T03:42:17;102052.75;;;-0.17
62611;BMP280;48683;48.084;17.272;2023-02-15T03:45:05;102049.56;;;-0.19
62611;BMP280;48683;48.084;17.272;2023-02-15T03:47:39;102059.63;;;-0.26
62611;BMP280;48683;48.084;17.272;2023-02-15T03:50:18;102052.78;;;-0.27
62611;BMP280;48683;48.084;17.272;2023-02-15T03:53:06;102056.97;;;-0.21
62611;BMP280;48683;48.084;17.272;2023-02-15T03:55:33;102042.22;;;-0.32
62611;BMP280;48683;48.084;17.272;2023-02-15T03:57:59;102053.31;;;-0.40
62611;BMP280;48683;48.084;17.272;2023-02-15T04:00:50;102039.63;;;-0.58
62611;BMP280;48683;48.084;17.272;2023-02-15T04:03:45;102042.28;;;-0.63
62611;BMP280;48683;48.084;17.272;2023-02-15T04:06:12;102047.28;;;-0.71
62611;BMP280;48683;48.084;17.272;2023-02-15T04:08:38;102056.00;;;-0.71
62611;BMP280;48683;48.084;17.272;2023-02-15T04:11:21;102055.72;;;-0.79
62611;BMP280;48683;48.084;17.272;2023-02-15T04:13:47;102056.25;;;-0.72
62611;BMP280;48683;48.084;17.272;2023-02-15T04:16:12;102056.78;;;-0.75
62611;BMP280;48683;48.084;17.272;2023-02-15T04:18:40;102055.19;;;-0.76
62611;BMP280;48683;48.084;17.272;2023-02-15T04:21:25;102055.72;;;-0.84
62611;BMP280;48683;48.084;17.272;2023-02-15T04:24:10;102053.59;;;-0.92
62611;BMP280;48683;48.084;17.272;2023-02-15T04:26:54;102051.75;;;-0.97
62611;BMP280;48683;48.084;17.272;2023-02-15T04:29:24;102053.63;;;-0.87
62611;BMP280;48683;48.084;17.272;2023-02-15T04:31:51;102052.56;;;-0.97
62611;BMP280;48683;48.084;17.272;2023-02-15T04:34:17;102045.16;;;-1.05
62611;BMP280;48683;48.084;17.272;2023-02-15T04:36:43;102049.13;;;-1.07
62611;BMP280;48683;48.084;17.272;2023-02-15T04:39:08;102047.28;;;-1.17
62611;BMP280;48683;48.084;17.272;2023-02-15T04:41:34;102045.94;;;-1.29
62611;BMP280;48683;48.084;17.272;2023-02-15T04:44:00;102048.53;;;-1.39
62611;BMP280;48683;48.084;17.272;2023-02-15T04:46:26;102043.50;;;-1.56
62611;BMP280;48683;48.084;17.272;2023-02-15T04:48:52;102044.25;;;-1.66
62611;BMP280;48683;48.084;17.272;2023-02-15T04:51:18;102038.16;;;-1.81
62611;BMP280;48683;48.084;17.272;2023-02-15T04:53:43;102048.16;;;-1.83
62611;BMP280;48683;48.084;17.272;2023-02-15T04:56:08;102033.63;;;-1.96
62611;BMP280;48683;48.084;17.272;2023-02-15T04:58:34;102057.63;;;-1.82
62611;BMP280;48683;48.084;17.272;2023-02-15T05:01:00;102045.50;;;-1.88
62611;BMP280;48683;48.084;17.272;2023-02-15T05:03:26;102048.38;;;-1.90
62611;BMP280;48683;48.084;17.272;2023-02-15T05:05:51;102047.59;;;-1.85
62611;BMP280;48683;48.084;17.272;2023-02-15T05:08:17;102050.50;;;-1.92
62611;BMP280;48683;48.084;17.272;2023-02-15T05:10:42;102064.19;;;-1.95
62611;BMP280;48683;48.084;17.272;2023-02-15T05:13:08;102056.47;;;-2.07
62611;BMP280;48683;48.084;17.272;2023-02-15T05:15:33;102072.00;;;-2.05
62611;BMP280;48683;48.084;17.272;2023-02-15T05:17:58;102071.75;;;-2.04
62611;BMP280;48683;48.084;17.272;2023-02-15T05:20:24;102068.34;;;-2.04
62611;BMP280;48683;48.084;17.272;2023-02-15T05:22:53;102083.09;;;-1.98
62611;BMP280;48683;48.084;17.272;2023-02-15T05:25:19;102076.25;;;-1.99
62611;BMP280;48683;48.084;17.272;2023-02-15T05:28:03;102075.47;;;-2.00
62611;BMP280;48683;48.084;17.272;2023-02-15T05:30:52;102078.13;;;-1.95
62611;BMP280;48683;48.084;17.272;2023-02-15T05:33:24;102076.75;;;-2.02
62611;BMP280;48683;48.084;17.272;2023-02-15T05:35:50;102086.25;;;-2.01
62611;BMP280;48683;48.084;17.272;2023-02-15T05:38:16;102088.06;;;-2.07
62611;BMP280;48683;48.084;17.272;2023-02-15T05:40:41;102088.78;;;-2.16
62611;BMP280;48683;48.084;17.272;2023-02-15T05:43:07;102085.09;;;-2.20
62611;BMP280;48683;48.084;17.272;2023-02-15T05:45:32;102085.78;;;-2.35
62611;BMP280;48683;48.084;17.272;2023-02-15T05:47:57;102093.72;;;-2.30
62611;BMP280;48683;48.084;17.272;2023-02-15T05:50:23;102089.75;;;-2.32
62611;BMP280;48683;48.084;17.272;2023-02-15T05:52:49;102095.28;;;-2.29
62611;BMP280;48683;48.084;17.272;2023-02-15T05:55:14;102098.50;;;-2.22
62611;BMP280;48683;48.084;17.272;2023-02-15T05:57:40;102102.38;;;-2.29
62611;BMP280;48683;48.084;17.272;2023-02-15T06:00:05;102109.22;;;-2.33
62611;BMP280;48683;48.084;17.272;2023-02-15T06:02:35;102116.94;;;-2.17
62611;BMP280;48683;48.084;17.272;2023-02-15T06:05:00;102110.59;;;-2.26
62611;BMP280;48683;48.084;17.272;2023-02-15T06:07:25;102102.13;;;-2.28
62611;BMP280;48683;48.084;17.272;2023-02-15T06:09:51;102117.78;;;-2.06
62611;BMP280;48683;48.084;17.272;2023-02-15T06:12:16;102116.00;;;-2.01
62611;BMP280;48683;48.084;17.272;2023-02-15T06:14:41;102108.09;;;-2.01
62611;BMP280;48683;48.084;17.272;2023-02-15T06:17:07;102103.88;;;-2.07
62611;BMP280;48683;48.084;17.272;2023-02-15T06:19:32;102107.56;;;-2.03
62611;BMP280;48683;48.084;17.272;2023-02-15T06:21:58;102120.53;;;-1.91
62611;BMP280;48683;48.084;17.272;2023-02-15T06:24:23;102113.88;;;-2.04
62611;BMP280;48683;48.084;17.272;2023-02-15T06:26:48;102123.38;;;-2.03
62611;BMP280;48683;48.084;17.272;2023-02-15T06:29:14;102130.44;;;-2.08
62611;BMP280;48683;48.084;17.272;2023-02-15T06:31:39;102129.59;;;-2.14
62611;BMP280;48683;48.084;17.272;2023-02-15T06:34:05;102136.22;;;-2.11
62611;BMP280;48683;48.084;17.272;2023-02-15T06:36:31;102136.75;;;-2.09
62611;BMP280;48683;48.084;17.272;2023-02-15T06:38:56;102136.22;;;-2.11
62611;BMP280;48683;48.084;17.272;2023-02-15T06:41:22;102150.19;;;-2.06
62611;BMP280;48683;48.084;17.272;2023-02-15T06:43:48;102153.09;;;-2.02
62611;BMP280;48683;48.084;17.272;2023-02-15T06:46:14;102158.16;;;-1.96
62611;BMP280;48683;48.084;17.272;2023-02-15T06:48:39;102153.41;;;-1.99
62611;BMP280;48683;48.084;17.272;2023-02-15T06:51:04;102156.03;;;-1.99
62611;BMP280;48683;48.084;17.272;2023-02-15T06:53:30;102158.91;;;-2.00
62611;BMP280;48683;48.084;17.272;2023-02-15T06:56:06;102153.38;;;-2.04
62611;BMP280;48683;48.084;17.272;2023-02-15T06:58:37;102163.16;;;-1.94
62611;BMP280;48683;48.084;17.272;2023-02-15T07:01:03;102158.47;;;-1.87
62611;BMP280;48683;48.084;17.272;2023-02-15T07:03:29;102148.47;;;-1.85
62611;BMP280;48683;48.084;17.272;2023-02-15T07:05:55;102150.88;;;-1.83
62611;BMP280;48683;48.084;17.272;2023-02-15T07:08:22;102164.06;;;-1.73
62611;BMP280;48683;48.084;17.272;2023-02-15T07:10:48;102141.41;;;-1.74
62611;BMP280;48683;48.084;17.272;2023-02-15T07:13:14;102144.59;;;-1.72
62611;BMP280;48683;48.084;17.272;2023-02-15T07:15:39;102155.44;;;-1.64
62611;BMP280;48683;48.084;17.272;2023-02-15T07:18:05;102147.59;;;-1.54
62611;BMP280;48683;48.084;17.272;2023-02-15T07:20:30;102147.13;;;-1.40
62611;BMP280;48683;48.084;17.272;2023-02-15T07:22:55;102150.53;;;-1.35
62611;BMP280;48683;48.084;17.272;2023-02-15T07:25:21;102145.09;;;-1.13
62611;BMP280;48683;48.084;17.272;2023-02-15T07:27:46;102152.25;;;-0.93
62611;BMP280;48683;48.084;17.272;2023-02-15T07:30:16;102149.91;;;-0.80
62611;BMP280;48683;48.084;17.272;2023-02-15T07:32:42;102148.59;;;-0.67
62611;BMP280;48683;48.084;17.272;2023-02-15T07:35:26;102140.69;;;-0.52
62611;BMP280;48683;48.084;17.272;2023-02-15T07:37:51;102144.41;;;-0.43
62611;BMP280;48683;48.084;17.272;2023-02-15T07:40:18;102161.81;;;-0.37
62611;BMP280;48683;48.084;17.272;2023-02-15T07:42:43;102152.81;;;-0.26
62611;BMP280;48683;48.084;17.272;2023-02-15T07:45:09;102151.78;;;-0.20
62611;BMP280;48683;48.084;17.272;2023-02-15T07:47:34;102145.41;;;-0.14
62611;BMP280;48683;48.084;17.272;2023-02-15T07:49:59;102154.66;;;-0.06
62611;BMP280;48683;48.084;17.272;2023-02-15T07:52:25;102154.38;;;-0.10
62611;BMP280;48683;48.084;17.272;2023-02-15T07:54:51;102145.41;;;-0.19
62611;BMP280;48683;48.084;17.272;2023-02-15T07:57:16;102159.16;;;-0.17
62611;BMP280;48683;48.084;17.272;2023-02-15T07:59:41;102149.38;;;-0.16
62611;BMP280;48683;48.084;17.272;2023-02-15T08:02:10;102155.97;;;-0.09
62611;BMP280;48683;48.084;17.272;2023-02-15T08:04:36;102145.19;;;-0.27
62611;BMP280;48683;48.084;17.272;2023-02-15T08:07:01;102150.97;;;-0.30
62611;BMP280;48683;48.084;17.272;2023-02-15T08:09:27;102148.09;;;-0.44
62611;BMP280;48683;48.084;17.272;2023-02-15T08:11:52;102139.34;;;-0.70
62611;BMP280;48683;48.084;17.272;2023-02-15T08:14:19;102159.69;;;-0.55
62611;BMP280;48683;48.084;17.272;2023-02-15T08:21:46;102161.53;;;-0.71
62611;BMP280;48683;48.084;17.272;2023-02-15T08:24:13;102156.00;;;-0.59
62611;BMP280;48683;48.084;17.272;2023-02-15T08:26:39;102153.09;;;-0.53
62611;BMP280;48683;48.084;17.272;2023-02-15T08:29:06;102153.59;;;-0.51
62611;BMP280;48683;48.084;17.272;2023-02-15T08:31:35;102161.53;;;-0.56
62611;BMP280;48683;48.084;17.272;2023-02-15T08:34:00;102157.59;;;-0.48
62611;BMP280;48683;48.084;17.272;2023-02-15T08:36:29;102154.66;;;-0.47
62611;BMP280;48683;48.084;17.272;2023-02-15T08:39:00;102164.16;;;-0.45
62611;BMP280;48683;48.084;17.272;2023-02-15T08:41:33;102167.88;;;-0.36
62611;BMP280;48683;48.084;17.272;2023-02-15T08:44:01;102164.97;;;-0.20
62611;BMP280;48683;48.084;17.272;2023-02-15T08:46:28;102160.72;;;-0.11
62611;BMP280;48683;48.084;17.272;2023-02-15T08:48:54;102168.38;;;0.06
62611;BMP280;48683;48.084;17.272;2023-02-15T08:51:22;102160.94;;;0.13
62611;BMP280;48683;48.084;17.272;2023-02-15T08:53:50;102161.44;;;0.25
62611;BMP280;48683;48.084;17.272;2023-02-15T08:56:18;102151.13;;;0.29
62611;BMP280;48683;48.084;17.272;2023-02-15T08:58:44;102146.97;;;0.03
62611;BMP280;48683;48.084;17.272;2023-02-15T09:01:11;102142.19;;;0.10
62611;BMP280;48683;48.084;17.272;2023-02-15T09:03:37;102142.44;;;0.13
62611;BMP280;48683;48.084;17.272;2023-02-15T09:06:03;102137.16;;;0.13
62611;BMP280;48683;48.084;17.272;2023-02-15T09:08:28;102132.69;;;0.19
62611;BMP280;48683;48.084;17.272;2023-02-15T09:10:54;102139.50;;;0.25
62611;BMP280;48683;48.084;17.272;2023-02-15T09:13:20;102132.69;;;0.19
62611;BMP280;48683;48.084;17.272;2023-02-15T09:15:46;102138.22;;;0.22
62611;BMP280;48683;48.084;17.272;2023-02-15T09:18:12;102147.44;;;0.30
62611;BMP280;48683;48.084;17.272;2023-02-15T09:20:42;102147.44;;;0.35
62611;BMP280;48683;48.084;17.272;2023-02-15T09:23:08;102135.25;;;0.34
62611;BMP280;48683;48.084;17.272;2023-02-15T09:25:33;102140.00;;;0.37
62611;BMP280;48683;48.084;17.272;2023-02-15T09:27:59;102147.38;;;0.45
62611;BMP280;48683;48.084;17.272;2023-02-15T09:30:24;102141.06;;;0.36
62611;BMP280;48683;48.084;17.272;2023-02-15T09:32:50;102143.16;;;0.39
62611;BMP280;48683;48.084;17.272;2023-02-15T09:35:15;102135.22;;;0.39
62611;BMP280;48683;48.084;17.272;2023-02-15T09:37:40;102140.75;;;0.47
62611;BMP280;48683;48.084;17.272;2023-02-15T09:40:06;102136.81;;;0.40
62611;BMP280;48683;48.084;17.272;2023-02-15T09:45:45;102140.69;;;0.63
62611;BMP280;48683;48.084;17.272;2023-02-15T09:48:32;102149.91;;;0.70
62611;BMP280;48683;48.084;17.272;2023-02-15T09:51:13;102138.81;;;0.73
62611;BMP280;48683;48.084;17.272;2023-02-15T09:56:19;102150.19;;;0.69
62611;BMP280;48683;48.084;17.272;2023-02-15T10:21:01;102125.94;;;1.01
62611;BMP280;48683;48.084;17.272;2023-02-15T10:23:47;102129.56;;;1.15
62611;BMP280;48683;48.084;17.272;2023-02-15T10:26:28;102123.81;;;1.03
62611;BMP280;48683;48.084;17.272;2023-02-15T10:29:09;102117.16;;;1.05
62611;BMP280;48683;48.084;17.272;2023-02-15T10:31:49;102121.78;;;0.89
62611;BMP280;48683;48.084;17.272;2023-02-15T10:48:18;102113.44;;;1.11
62611;BMP280;48683;48.084;17.272;2023-02-15T10:50:54;102109.72;;;1.12
62611;BMP280;48683;48.084;17.272;2023-02-15T10:53:31;102109.16;;;1.20
62611;BMP280;48683;48.084;17.272;2023-02-15T10:58:38;102097.97;;;1.28
62611;BMP280;48683;48.084;17.272;2023-02-15T11:03:46;102096.28;;;1.37
62611;BMP280;48683;48.084;17.272;2023-02-15T11:06:21;102092.03;;;1.41
62611;BMP280;48683;48.084;17.272;2023-02-15T11:08:52;102088.53;;;1.46
62611;BMP280;48683;48.084;17.272;2023-02-15T11:13:56;102092.69;;;1.57
62611;BMP280;48683;48.084;17.272;2023-02-15T11:16:25;102077.59;;;1.58
62611;BMP280;48683;48.084;17.272;2023-02-15T11:21:33;102076.28;;;1.55
62611;BMP280;48683;48.084;17.272;2023-02-15T11:24:30;102077.31;;;1.59
62611;BMP280;48683;48.084;17.272;2023-02-15T11:27:04;102063.28;;;1.59
62611;BMP280;48683;48.084;17.272;2023-02-15T11:29:36;102068.06;;;1.57
62611;BMP280;48683;48.084;17.272;2023-02-15T11:32:17;102058.22;;;1.62
62611;BMP280;48683;48.084;17.272;2023-02-15T11:34:53;102063.47;;;1.67
62611;BMP280;48683;48.084;17.272;2023-02-15T11:37:26;102072.13;;;1.73
62611;BMP280;48683;48.084;17.272;2023-02-15T11:39:52;102066.56;;;1.74
62611;BMP280;48683;48.084;17.272;2023-02-15T11:42:21;102063.00;;;1.84
62611;BMP280;48683;48.084;17.272;2023-02-15T11:45:01;102043.69;;;1.83
62611;BMP280;48683;48.084;17.272;2023-02-15T11:47:27;102049.50;;;1.85
62611;BMP280;48683;48.084;17.272;2023-02-15T11:49:53;102056.03;;;1.93
62611;BMP280;48683;48.084;17.272;2023-02-15T11:52:18;102048.53;;;2.00
62611;BMP280;48683;48.084;17.272;2023-02-15T11:54:47;102044.97;;;2.10
62611;BMP280;48683;48.084;17.272;2023-02-15T11:57:19;102038.81;;;2.14
62611;BMP280;48683;48.084;17.272;2023-02-15T11:59:56;102039.56;;;1.96
62611;BMP280;48683;48.084;17.272;2023-02-15T12:02:23;102034.22;;;2.01
62611;BMP280;48683;48.084;17.272;2023-02-15T12:04:56;102031.84;;;2.00
62611;BMP280;48683;48.084;17.272;2023-02-15T12:07:26;102034.72;;;2.03
62611;BMP280;48683;48.084;17.272;2023-02-15T12:12:34;102036.00;;;2.29
62611;BMP280;48683;48.084;17.272;2023-02-15T12:15:02;102026.72;;;2.27
62611;BMP280;48683;48.084;17.272;2023-02-15T12:20:07;102031.75;;;2.47
62611;BMP280;48683;48.084;17.272;2023-02-15T12:22:49;102036.50;;;2.50
62611;BMP280;48683;48.084;17.272;2023-02-15T12:25:26;102025.31;;;2.53
62611;BMP280;48683;48.084;17.272;2023-02-15T12:27:54;102015.38;;;2.45
62611;BMP280;48683;48.084;17.272;2023-02-15T12:32:52;102028.91;;;2.62
62611;BMP280;48683;48.084;17.272;2023-02-15T12:35:30;102025.38;;;2.67
62611;BMP280;48683;48.084;17.272;2023-02-15T12:38:37;102022.09;;;2.75
62611;BMP280;48683;48.084;17.272;2023-02-15T12:40:57;102015.72;;;2.76
62611;BMP280;48683;48.084;17.272;2023-02-15T12:43:36;102020.56;;;2.88
62611;BMP280;48683;48.084;17.272;2023-02-15T12:46:23;102018.41;;;2.90
62611;BMP280;48683;48.084;17.272;2023-02-15T12:49:24;102001.41;;;2.91
62611;BMP280;48683;48.084;17.272;2023-02-15T12:52:00;102007.19;;;2.93
62611;BMP280;48683;48.084;17.272;2023-02-15T12:54:30;101994.44;;;2.95
62611;BMP280;48683;48.084;17.272;2023-02-15T12:56:57;102002.16;;;3.10
62611;BMP280;48683;48.084;17.272;2023-02-15T12:59:23;101996.91;;;3.05
62611;BMP280;48683;48.084;17.272;2023-02-15T13:01:48;101989.16;;;3.08
62611;BMP280;48683;48.084;17.272;2023-02-15T13:04:22;101986.16;;;3.15
62611;BMP280;48683;48.084;17.272;2023-02-15T13:06:50;101983.03;;;3.26
62611;BMP280;48683;48.084;17.272;2023-02-15T13:12:09;101978.91;;;3.34
62611;BMP280;48683;48.084;17.272;2023-02-15T13:14:35;101977.44;;;3.42
62611;BMP280;48683;48.084;17.272;2023-02-15T13:17:02;101980.75;;;3.47
62611;BMP280;48683;48.084;17.272;2023-02-15T13:19:36;101983.63;;;3.51
62611;BMP280;48683;48.084;17.272;2023-02-15T13:22:10;101970.84;;;3.53
62611;BMP280;48683;48.084;17.272;2023-02-15T13:24:43;101971.84;;;3.57
62611;BMP280;48683;48.084;17.272;2023-02-15T13:27:14;101968.47;;;3.51
62611;BMP280;48683;48.084;17.272;2023-02-15T13:29:52;101963.34;;;3.55
62611;BMP280;48683;48.084;17.272;2023-02-15T13:32:35;101966.81;;;3.55
62611;BMP280;48683;48.084;17.272;2023-02-15T13:35:03;101956.69;;;3.57
62611;BMP280;48683;48.084;17.272;2023-02-15T13:40:25;101952.75;;;3.41
62611;BMP280;48683;48.084;17.272;2023-02-15T13:42:57;101956.66;;;3.44
62611;BMP280;48683;48.084;17.272;2023-02-15T13:54:47;101952.84;;;3.63
62611;BMP280;48683;48.084;17.272;2023-02-15T14:02:43;101947.44;;;3.68
62611;BMP280;48683;48.084;17.272;2023-02-15T14:05:28;101954.50;;;3.73
62611;BMP280;48683;48.084;17.272;2023-02-15T14:09:01;101953.31;;;3.79
62611;BMP280;48683;48.084;17.272;2023-02-15T14:11:12;101950.44;;;3.89
62611;BMP280;48683;48.084;17.272;2023-02-15T14:14:02;101944.72;;;3.96
62611;BMP280;48683;48.084;17.272;2023-02-15T14:20:07;101940.47;;;4.08
62611;BMP280;48683;48.084;17.272;2023-02-15T14:25:15;101933.88;;;4.06
62611;BMP280;48683;48.084;17.272;2023-02-15T14:28:05;101932.09;;;4.15
62611;BMP280;48683;48.084;17.272;2023-02-15T14:30:38;101935.22;;;4.17
62611;BMP280;48683;48.084;17.272;2023-02-15T14:33:36;101927.56;;;4.15
62611;BMP280;48683;48.084;17.272;2023-02-15T14:36:04;101928.53;;;4.19
62611;BMP280;48683;48.084;17.272;2023-02-15T14:41:59;101914.06;;;4.12
62611;BMP280;48683;48.084;17.272;2023-02-15T14:47:05;101896.19;;;4.04
62611;BMP280;48683;48.084;17.272;2023-02-15T14:49:33;101907.28;;;4.06
62611;BMP280;48683;48.084;17.272;2023-02-15T14:52:07;101905.13;;;4.08
62611;BMP280;48683;48.084;17.272;2023-02-15T14:59:38;101900.72;;;4.03
62611;BMP280;48683;48.084;17.272;2023-02-15T15:04:38;101892.22;;;4.01
62611;BMP280;48683;48.084;17.272;2023-02-15T15:07:28;101888.69;;;4.06
62611;BMP280;48683;48.084;17.272;2023-02-15T15:18:42;101883.97;;;4.03
62611;BMP280;48683;48.084;17.272;2023-02-15T15:20:50;101876.59;;;4.00
62611;BMP280;48683;48.084;17.272;2023-02-15T15:25:46;101884.06;;;3.98
62611;BMP280;48683;48.084;17.272;2023-02-15T15:50:15;101848.69;;;3.39
62611;BMP280;48683;48.084;17.272;2023-02-15T15:52:54;101853.19;;;3.39
62611;BMP280;48683;48.084;17.272;2023-02-15T15:55:23;101844.06;;;3.31
62611;BMP280;48683;48.084;17.272;2023-02-15T15:57:52;101843.88;;;3.27
62611;BMP280;48683;48.084;17.272;2023-02-15T16:00:38;101849.88;;;3.19
62611;BMP280;48683;48.084;17.272;2023-02-15T16:03:14;101842.59;;;3.11
62611;BMP280;48683;48.084;17.272;2023-02-15T16:05:40;101851.94;;;3.09
62611;BMP280;48683;48.084;17.272;2023-02-15T16:08:05;101846.34;;;2.97
62611;BMP280;48683;48.084;17.272;2023-02-15T16:10:32;101851.25;;;2.90
62611;BMP280;48683;48.084;17.272;2023-02-15T16:12:59;101843.47;;;2.79
62611;BMP280;48683;48.084;17.272;2023-02-15T16:15:33;101845.63;;;2.77
62611;BMP280;48683;48.084;17.272;2023-02-15T16:17:59;101848.28;;;2.64
62611;BMP280;48683;48.084;17.272;2023-02-15T16:20:34;101846.88;;;2.53
62611;BMP280;48683;48.084;17.272;2023-02-15T16:28:38;101843.59;;;2.42
62611;BMP280;48683;48.084;17.272;2023-02-15T16:31:16;101829.22;;;2.29
62611;BMP280;48683;48.084;17.272;2023-02-15T16:33:42;101836.41;;;2.29
62611;BMP280;48683;48.084;17.272;2023-02-15T16:36:24;101822.81;;;2.17
62611;BMP280;48683;48.084;17.272;2023-02-15T16:41:26;101834.69;;;2.19
62611;BMP280;48683;48.084;17.272;2023-02-15T16:43:54;101844.00;;;2.17
62611;BMP280;48683;48.084;17.272;2023-02-15T16:48:51;101833.91;;;2.00